Date,TemperatureHighF,TemperatureAvgF,TemperatureLowF,DewpointHighF,DewpointAvgF,DewpointLowF,HumidityHigh,HumidityAvg,HumidityLow,PressureMaxIn,PressureMinIn,WindSpeedMaxMPH,WindSpeedAvgMPH,GustSpeedMaxMPH,PrecipitationSumIn
2013-8-1,84,55,39,56,44,37,95,71,32,30.15,30.06,15,2,172,1.12
2013-8-2,85,70,52,48,40,32,63,37,16,30.21,30.03,17,5,136,0.18
2013-8-3,70,56,44,56,47,37,86,71,56,30.21,30.03,8,2,14,0.04
2013-8-4,83,60,46,55,47,39,85,66,26,30.09,29.97,13,3,13,0.06
2013-8-5,66,56,46,54,49,42,88,77,63,30.09,29.95,9,2,11,0.02
2013-8-6,65,57,46,54,51,43,93,81,62,29.95,29.83,12,3,32,3.13
2013-8-7,63,55,51,53,50,47,91,82,63,29.86,29.71,29,8,35,0.62
2013-8-8,56,53,50,53,48,46,88,84,75,30.15,30.03,117,7,117,0.83
2013-8-9,62,52,43,51,45,39,93,78,57,30.21,30.15,11,3,123,0.29
2013-8-10,65,50,37,57,42,34,93,76,49,30.15,29.80,14,2,125,0.18
2013-8-11,73,52,36,53,44,33,90,77,38,29.89,29.68,13,3,61,0.12
2013-8-12,73,56,42,54,46,39,94,72,44,29.86,29.65,15,3,104,0.18
2013-8-13,62,53,45,56,48,41,91,83,73,29.68,29.56,11,2,57,0.16
2013-8-14,61,53,45,48,44,41,91,73,54,29.89,29.68,20,6,61,0.03
2013-8-15,65,53,41,50,44,38,93,72,53,29.86,29.71,17,4,20,0.09
2013-8-16,72,60,45,52,44,35,86,58,39,29.86,29.53,26,5,161,0.12
2013-8-17,64,58,53,51,45,39,87,63,44,29.94,29.53,28,12,118,2.60
2013-8-18,62,56,49,46,41,38,72,58,47,30.21,29.94,23,10,211,0.03
2013-8-19,66,52,39,49,42,36,90,71,47,30.21,30.01,11,3,140,2.54
2013-8-20,72,53,36,51,43,32,90,70,43,30.01,29.77,11,2,100,0.06
2013-8-21,62,51,41,52,45,-100,91,80,60,30.03,29.62,28,7,89,0.34
2013-8-22,60,51,42,43,38,34,79,63,44,30.24,30.03,15,4,15,0.03
2013-8-23,64,51,38,49,41,28,90,70,49,30.15,29.94,13,2,57,1.71
2013-8-24,66,54,39,52,45,35,93,74,47,30.21,29.98,15,3,47,1.56
2013-8-25,70,54,41,54,46,39,94,76,50,30.21,29.83,13,2,13,0.00
2013-8-26,66,58,48,57,52,44,93,81,63,29.85,29.62,11,3,13,0.00
2013-8-27,71,61,52,55,52,47,90,73,51,29.88,29.68,19,3,19,0.00
2013-8-28,79,61,52,59,52,48,89,73,41,29.80,29.59,24,3,25,0.00
2013-8-29,60,56,48,55,52,44,93,87,76,29.77,29.68,15,3,15,0.46
2013-8-30,64,52,38,48,40,35,92,65,41,29.86,29.68,24,6,24,0.04
2013-8-31,66,58,54,44,39,34,65,50,42,29.97,29.71,35,16,35,0.00